sensor_id;sensor_type;location;lat;lon;timestamp;pressure;altitude;pressure_sealevel;temperature;humidity
9277;BME280;4676;42.678;23.244;2023-05-23T00:00:40;93970.66;;;11.11;100.00
9277;BME280;4676;42.678;23.244;2023-05-23T00:03:07;93963.19;;;11.08;100.00
9277;BME280;4676;42.678;23.244;2023-05-23T00:05:35;93959.72;;;11.09;100.00
9277;BME280;4676;42.678;23.244;2023-05-23T00:08:03;93951.97;;;11.12;100.00
9277;BME280;4676;42.678;23.244;2023-05-23T00:10:29;93948.84;;;11.07;100.00
9277;BME280;4676;42.678;23.244;2023-05-23T00:12:56;93953.09;;;11.07;100.00
9277;BME280;4676;42.678;23.244;2023-05-23T00:15:24;93954.94;;;11.03;100.00
9277;BME280;4676;42.678;23.244;2023-05-23T00:17:51;93949.91;;;11.01;100.00
9277;BME280;4676;42.678;23.244;2023-05-23T00:20:18;93940.06;;;10.95;100.00
9277;BME280;4676;42.678;23.244;2023-05-23T00:22:45;93945.25;;;10.92;100.00
9277;BME280;4676;42.678;23.244;2023-05-23T00:25:12;93919.81;;;10.75;100.00
9277;BME280;4676;42.678;23.244;2023-05-23T00:27:39;93944.53;;;10.90;100.00
9277;BME280;4676;42.678;23.244;2023-05-23T00:30:07;93942.22;;;10.84;100.00
9277;BME280;4676;42.678;23.244;2023-05-23T00:32:35;93947.44;;;10.81;100.00
9277;BME280;4676;42.678;23.244;2023-05-23T00:35:02;93934.94;;;10.77;100.00
9277;BME280;4676;42.678;23.244;2023-05-23T00:37:29;93938.41;;;10.76;100.00
9277;BME280;4676;42.678;23.244;2023-05-23T00:39:56;93945.31;;;10.72;100.00
9277;BME280;4676;42.678;23.244;2023-05-23T00:42:23;93942.63;;;10.75;100.00
9277;BME280;4676;42.678;23.244;2023-05-23T00:44:49;93939.22;;;10.76;100.00
9277;BME280;4676;42.678;23.244;2023-05-23T00:47:16;93942.69;;;10.74;100.00
9277;BME280;4676;42.678;23.244;2023-05-23T00:49:45;93942.00;;;10.70;100.00
9277;BME280;4676;42.678;23.244;2023-05-23T00:52:13;93922.97;;;10.62;100.00
9277;BME280;4676;42.678;23.244;2023-05-23T00:54:41;93938.63;;;10.70;100.00
9277;BME280;4676;42.678;23.244;2023-05-23T00:57:08;93947.84;;;10.72;100.00
9277;BME280;4676;42.678;23.244;2023-05-23T00:59:36;93949.59;;;10.70;100.00
9277;BME280;4676;42.678;23.244;2023-05-23T01:02:03;93932.53;;;10.55;100.00
9277;BME280;4676;42.678;23.244;2023-05-23T01:04:30;93944.16;;;10.59;100.00
9277;BME280;4676;42.678;23.244;2023-05-23T01:07:02;93945.06;;;10.58;100.00
9277;BME280;4676;42.678;23.244;2023-05-23T01:09:28;93942.59;;;10.57;100.00
9277;BME280;4676;42.678;23.244;2023-05-23T01:12:04;93945.78;;;10.62;100.00
9277;BME280;4676;42.678;23.244;2023-05-23T01:14:41;93942.22;;;10.66;100.00
9277;BME280;4676;42.678;23.244;2023-05-23T01:17:18;93939.03;;;10.61;100.00
9277;BME280;4676;42.678;23.244;2023-05-23T01:19:54;93943.97;;;10.64;100.00
9277;BME280;4676;42.678;23.244;2023-05-23T01:22:37;93909.00;;;10.33;100.00
9277;BME280;4676;42.678;23.244;2023-05-23T01:25:13;93956.97;;;10.56;100.00
9277;BME280;4676;42.678;23.244;2023-05-23T01:27:53;93950.19;;;10.57;100.00
9277;BME280;4676;42.678;23.244;2023-05-23T01:30:23;93951.03;;;10.57;100.00
9277;BME280;4676;42.678;23.244;2023-05-23T01:32:53;93945.22;;;10.55;100.00
9277;BME280;4676;42.678;23.244;2023-05-23T01:35:24;93941.03;;;10.54;100.00
9277;BME280;4676;42.678;23.244;2023-05-23T01:37:51;93928.66;;;10.46;100.00
9277;BME280;4676;42.678;23.244;2023-05-23T01:40:18;93942.09;;;10.48;100.00
9277;BME280;4676;42.678;23.244;2023-05-23T01:42:45;93933.88;;;10.43;100.00
9277;BME280;4676;42.678;23.244;2023-05-23T01:45:14;93940.97;;;10.35;100.00
9277;BME280;4676;42.678;23.244;2023-05-23T01:47:42;93937.72;;;10.32;100.00
9277;BME280;4676;42.678;23.244;2023-05-23T01:50:10;93933.56;;;10.31;100.00
9277;BME280;4676;42.678;23.244;2023-05-23T01:52:37;93939.81;;;10.22;100.00
9277;BME280;4676;42.678;23.244;2023-05-23T01:55:06;93935.41;;;10.27;100.00
9277;BME280;4676;42.678;23.244;2023-05-23T01:57:37;93922.94;;;10.23;100.00
9277;BME280;4676;42.678;23.244;2023-05-23T02:00:05;93924.50;;;10.25;100.00
9277;BME280;4676;42.678;23.244;2023-05-23T02:02:33;93920.25;;;10.26;100.00
9277;BME280;4676;42.678;23.244;2023-05-23T02:05:00;93921.78;;;10.30;100.00
9277;BME280;4676;42.678;23.244;2023-05-23T02:07:27;93926.78;;;10.31;100.00
9277;BME280;4676;42.678;23.244;2023-05-23T02:09:54;93926.91;;;10.28;100.00
9277;BME280;4676;42.678;23.244;2023-05-23T02:12:20;93929.44;;;10.28;100.00
9277;BME280;4676;42.678;23.244;2023-05-23T02:14:48;93931.28;;;10.25;100.00
9277;BME280;4676;42.678;23.244;2023-05-23T02:17:16;93932.09;;;10.25;100.00
9277;BME280;4676;42.678;23.244;2023-05-23T02:19:44;93934.06;;;10.39;100.00
9277;BME280;4676;42.678;23.244;2023-05-23T02:22:11;93938.50;;;10.34;100.00
9277;BME280;4676;42.678;23.244;2023-05-23T02:24:38;93930.44;;;10.24;100.00
9277;BME280;4676;42.678;23.244;2023-05-23T02:27:04;93933.06;;;10.23;100.00
9277;BME280;4676;42.678;23.244;2023-05-23T02:29:32;93927.03;;;10.25;100.00
9277;BME280;4676;42.678;23.244;2023-05-23T02:31:58;93919.69;;;10.19;100.00
9277;BME280;4676;42.678;23.244;2023-05-23T02:34:25;93925.47;;;10.23;100.00
9277;BME280;4676;42.678;23.244;2023-05-23T02:36:56;93926.47;;;10.19;100.00
9277;BME280;4676;42.678;23.244;2023-05-23T02:39:23;93918.31;;;10.11;100.00
9277;BME280;4676;42.678;23.244;2023-05-23T02:41:50;93922.50;;;10.12;100.00
9277;BME280;4676;42.678;23.244;2023-05-23T02:44:17;93926.19;;;10.04;100.00
9277;BME280;4676;42.678;23.244;2023-05-23T02:46:44;93864.69;;;9.61;100.00
9277;BME280;4676;42.678;23.244;2023-05-23T02:49:11;93922.28;;;9.96;100.00
9277;BME280;4676;42.678;23.244;2023-05-23T02:51:37;93898.53;;;9.78;100.00
9277;BME280;4676;42.678;23.244;2023-05-23T02:54:06;93925.72;;;9.95;100.00
9277;BME280;4676;42.678;23.244;2023-05-23T02:56:32;93930.91;;;9.92;100.00
9277;BME280;4676;42.678;23.244;2023-05-23T02:58:59;93923.31;;;9.92;100.00
9277;BME280;4676;42.678;23.244;2023-05-23T03:01:26;93932.38;;;9.97;100.00
9277;BME280;4676;42.678;23.244;2023-05-23T03:03:52;93929.53;;;9.85;100.00
9277;BME280;4676;42.678;23.244;2023-05-23T03:06:19;93935.47;;;9.84;100.00
9277;BME280;4676;42.678;23.244;2023-05-23T03:08:46;93940.44;;;9.85;100.00
9277;BME280;4676;42.678;23.244;2023-05-23T03:11:15;93932.63;;;9.91;100.00
9277;BME280;4676;42.678;23.244;2023-05-23T03:13:41;93931.84;;;9.89;100.00
9277;BME280;4676;42.678;23.244;2023-05-23T03:16:08;93934.78;;;10.00;100.00
9277;BME280;4676;42.678;23.244;2023-05-23T03:18:36;93936.47;;;10.00;100.00
9277;BME280;4676;42.678;23.244;2023-05-23T03:21:06;93939.00;;;10.00;100.00
9277;BME280;4676;42.678;23.244;2023-05-23T03:23:33;93937.19;;;10.03;100.00
9277;BME280;4676;42.678;23.244;2023-05-23T03:26:01;93938.09;;;10.02;100.00
9277;BME280;4676;42.678;23.244;2023-05-23T03:28:29;93934.59;;;10.05;100.00
9277;BME280;4676;42.678;23.244;2023-05-23T03:30:56;93939.56;;;10.07;100.00
9277;BME280;4676;42.678;23.244;2023-05-23T03:33:23;93940.19;;;10.13;100.00
9277;BME280;4676;42.678;23.244;2023-05-23T03:35:50;93945.28;;;10.12;100.00
9277;BME280;4676;42.678;23.244;2023-05-23T03:38:17;93950.84;;;10.21;100.00
9277;BME280;4676;42.678;23.244;2023-05-23T03:40:44;93949.81;;;10.25;100.00
9277;BME280;4676;42.678;23.244;2023-05-23T03:43:10;93954.72;;;10.30;100.00
9277;BME280;4676;42.678;23.244;2023-05-23T03:45:39;93946.66;;;10.40;100.00
9277;BME280;4676;42.678;23.244;2023-05-23T03:48:05;93950.06;;;10.60;100.00
9277;BME280;4676;42.678;23.244;2023-05-23T03:50:32;93946.50;;;10.64;100.00
9277;BME280;4676;42.678;23.244;2023-05-23T03:52:59;93949.69;;;10.69;100.00
9277;BME280;4676;42.678;23.244;2023-05-23T03:55:25;93951.50;;;10.85;100.00
9277;BME280;4676;42.678;23.244;2023-05-23T03:57:52;93951.84;;;10.96;100.00
9277;BME280;4676;42.678;23.244;2023-05-23T04:00:19;93959.59;;;10.93;100.00
9277;BME280;4676;42.678;23.244;2023-05-23T04:02:47;93956.44;;;11.07;100.00
9277;BME280;4676;42.678;23.244;2023-05-23T04:05:14;93948.91;;;11.06;100.00
9277;BME280;4676;42.678;23.244;2023-05-23T04:07:41;93950.28;;;11.13;100.00
9277;BME280;4676;42.678;23.244;2023-05-23T04:10:08;93954.19;;;11.01;100.00
9277;BME280;4676;42.678;23.244;2023-05-23T04:12:35;93954.31;;;10.98;100.00
9277;BME280;4676;42.678;23.244;2023-05-23T04:15:03;93949.59;;;10.90;100.00
9277;BME280;4676;42.678;23.244;2023-05-23T04:17:30;93961.84;;;10.99;100.00
9277;BME280;4676;42.678;23.244;2023-05-23T04:19:58;93956.78;;;10.99;100.00
9277;BME280;4676;42.678;23.244;2023-05-23T04:22:25;93955.44;;;11.11;100.00
9277;BME280;4676;42.678;23.244;2023-05-23T04:24:51;93949.53;;;11.11;100.00
9277;BME280;4676;42.678;23.244;2023-05-23T04:27:18;93949.34;;;11.15;100.00
9277;BME280;4676;42.678;23.244;2023-05-23T04:29:46;93941.63;;;11.17;100.00
9277;BME280;4676;42.678;23.244;2023-05-23T04:32:13;93943.50;;;11.13;100.00
9277;BME280;4676;42.678;23.244;2023-05-23T04:34:41;93937.88;;;11.07;100.00
9277;BME280;4676;42.678;23.244;2023-05-23T04:37:10;93943.00;;;11.05;100.00
9277;BME280;4676;42.678;23.244;2023-05-23T04:39:37;93951.72;;;11.18;100.00
9277;BME280;4676;42.678;23.244;2023-05-23T04:42:04;93944.47;;;11.29;100.00
9277;BME280;4676;42.678;23.244;2023-05-23T04:44:31;93944.19;;;11.35;100.00
9277;BME280;4676;42.678;23.244;2023-05-23T04:46:58;93960.09;;;11.39;100.00
9277;BME280;4676;42.678;23.244;2023-05-23T04:49:27;93963.50;;;11.38;100.00
9277;BME280;4676;42.678;23.244;2023-05-23T04:51:54;93963.91;;;11.47;100.00
9277;BME280;4676;42.678;23.244;2023-05-23T04:54:22;93961.47;;;11.46;100.00
9277;BME280;4676;42.678;23.244;2023-05-23T04:56:48;93966.88;;;11.57;100.00
9277;BME280;4676;42.678;23.244;2023-05-23T04:59:15;93969.81;;;11.48;100.00
9277;BME280;4676;42.678;23.244;2023-05-23T05:01:42;93968.28;;;11.44;100.00
9277;BME280;4676;42.678;23.244;2023-05-23T05:04:09;93975.66;;;11.50;100.00
9277;BME280;4676;42.678;23.244;2023-05-23T05:06:36;93976.25;;;11.55;100.00
9277;BME280;4676;42.678;23.244;2023-05-23T05:09:02;93970.34;;;11.54;100.00
9277;BME280;4676;42.678;23.244;2023-05-23T05:11:31;93975.50;;;11.53;100.00
9277;BME280;4676;42.678;23.244;2023-05-23T05:13:57;93980.50;;;11.54;100.00
9277;BME280;4676;42.678;23.244;2023-05-23T05:16:24;93984.75;;;11.54;100.00
9277;BME280;4676;42.678;23.244;2023-05-23T05:18:51;93984.25;;;11.65;100.00
9277;BME280;4676;42.678;23.244;2023-05-23T05:21:18;93986.75;;;11.66;100.00
9277;BME280;4676;42.678;23.244;2023-05-23T05:23:44;93989.28;;;11.66;100.00
9277;BME280;4676;42.678;23.244;2023-05-23T05:26:11;93978.97;;;11.71;100.00
9277;BME280;4676;42.678;23.244;2023-05-23T05:28:39;93979.81;;;11.70;100.00
9277;BME280;4676;42.678;23.244;2023-05-23T05:31:06;93981.75;;;11.83;100.00
9277;BME280;4676;42.678;23.244;2023-05-23T05:33:34;93980.75;;;11.86;100.00
9277;BME280;4676;42.678;23.244;2023-05-23T05:36:02;93982.94;;;11.93;100.00
9277;BME280;4676;42.678;23.244;2023-05-23T05:38:28;93978.78;;;11.92;100.00
9277;BME280;4676;42.678;23.244;2023-05-23T05:40:55;93984.94;;;12.06;100.00
9277;BME280;4676;42.678;23.244;2023-05-23T05:43:22;93995.75;;;12.09;100.00
9277;BME280;4676;42.678;23.244;2023-05-23T05:45:50;93985.66;;;12.08;100.00
9277;BME280;4676;42.678;23.244;2023-05-23T05:48:16;93994.88;;;12.10;100.00
9277;BME280;4676;42.678;23.244;2023-05-23T05:50:43;93994.50;;;12.18;100.00
9277;BME280;4676;42.678;23.244;2023-05-23T05:53:11;93989.66;;;12.13;100.00
9277;BME280;4676;42.678;23.244;2023-05-23T05:55:37;94000.03;;;12.26;100.00
9277;BME280;4676;42.678;23.244;2023-05-23T05:58:04;93996.97;;;12.36;100.00
9277;BME280;4676;42.678;23.244;2023-05-23T06:00:31;93995.84;;;12.42;100.00
9277;BME280;4676;42.678;23.244;2023-05-23T06:03:00;94002.94;;;12.52;100.00
9277;BME280;4676;42.678;23.244;2023-05-23T06:05:27;93996.81;;;12.74;100.00
9277;BME280;4676;42.678;23.244;2023-05-23T06:07:53;93996.50;;;12.97;100.00
9277;BME280;4676;42.678;23.244;2023-05-23T06:10:20;93982.19;;;13.12;100.00
9277;BME280;4676;42.678;23.244;2023-05-23T06:12:47;93993.00;;;13.32;100.00
9277;BME280;4676;42.678;23.244;2023-05-23T06:15:13;93990.28;;;13.51;100.00
9277;BME280;4676;42.678;23.244;2023-05-23T06:17:40;93995.41;;;13.82;100.00
9277;BME280;4676;42.678;23.244;2023-05-23T06:20:11;93999.81;;;13.94;100.00
9277;BME280;4676;42.678;23.244;2023-05-23T06:22:38;94000.78;;;14.08;100.00
9277;BME280;4676;42.678;23.244;2023-05-23T06:25:05;94000.94;;;14.20;100.00
9277;BME280;4676;42.678;23.244;2023-05-23T06:27:32;94006.44;;;14.28;100.00
9277;BME280;4676;42.678;23.244;2023-05-23T06:29:59;93999.91;;;14.54;100.00
9277;BME280;4676;42.678;23.244;2023-05-23T06:32:25;94002.78;;;14.92;100.00
9277;BME280;4676;42.678;23.244;2023-05-23T06:34:52;94001.38;;;15.16;100.00
9277;BME280;4676;42.678;23.244;2023-05-23T06:37:20;94006.94;;;15.37;100.00
9277;BME280;4676;42.678;23.244;2023-05-23T06:39:47;93999.44;;;15.76;100.00
9277;BME280;4676;42.678;23.244;2023-05-23T06:42:14;93993.09;;;16.23;100.00
9277;BME280;4676;42.678;23.244;2023-05-23T06:44:41;93997.59;;;16.46;100.00
9277;BME280;4676;42.678;23.244;2023-05-23T06:47:08;93991.91;;;16.68;100.00
9277;BME280;4676;42.678;23.244;2023-05-23T06:49:34;93985.69;;;16.72;100.00
9277;BME280;4676;42.678;23.244;2023-05-23T06:52:01;93991.75;;;16.96;100.00
9277;BME280;4676;42.678;23.244;2023-05-23T06:54:29;93996.34;;;17.04;100.00
9277;BME280;4676;42.678;23.244;2023-05-23T06:56:56;93986.53;;;17.10;100.00
9277;BME280;4676;42.678;23.244;2023-05-23T06:59:22;93989.41;;;17.31;100.00
9277;BME280;4676;42.678;23.244;2023-05-23T07:01:49;93989.59;;;17.40;100.00
9277;BME280;4676;42.678;23.244;2023-05-23T07:06:45;93991.94;;;17.56;100.00
9277;BME280;4676;42.678;23.244;2023-05-23T07:09:12;93985.88;;;17.70;100.00
9277;BME280;4676;42.678;23.244;2023-05-23T07:11:40;93990.84;;;17.84;100.00
9277;BME280;4676;42.678;23.244;2023-05-23T07:14:07;93988.56;;;17.43;100.00
9277;BME280;4676;42.678;23.244;2023-05-23T07:16:33;93963.03;;;17.54;100.00
9277;BME280;4676;42.678;23.244;2023-05-23T07:19:00;93983.00;;;17.74;100.00
9277;BME280;4676;42.678;23.244;2023-05-23T07:21:29;93977.09;;;17.98;100.00
9277;BME280;4676;42.678;23.244;2023-05-23T07:23:56;93968.19;;;18.14;100.00
9277;BME280;4676;42.678;23.244;2023-05-23T07:26:23;93969.50;;;18.20;100.00
9277;BME280;4676;42.678;23.244;2023-05-23T07:28:53;93966.16;;;18.30;100.00
9277;BME280;4676;42.678;23.244;2023-05-23T07:31:20;93976.72;;;18.15;100.00
9277;BME280;4676;42.678;23.244;2023-05-23T07:33:46;93963.94;;;18.26;100.00
9277;BME280;4676;42.678;23.244;2023-05-23T07:36:13;93965.25;;;18.31;100.00
9277;BME280;4676;42.678;23.244;2023-05-23T07:38:40;93966.06;;;18.32;100.00
9277;BME280;4676;42.678;23.244;2023-05-23T07:41:07;93962.19;;;18.50;100.00
9277;BME280;4676;42.678;23.244;2023-05-23T07:43:34;93967.72;;;18.33;100.00
9277;BME280;4676;42.678;23.244;2023-05-23T07:46:02;93965.56;;;18.27;100.00
9277;BME280;4676;42.678;23.244;2023-05-23T07:48:28;93955.63;;;18.46;100.00
9277;BME280;4676;42.678;23.244;2023-05-23T07:50:56;93959.59;;;18.50;100.00
9277;BME280;4676;42.678;23.244;2023-05-23T07:53:22;93950.59;;;18.44;100.00
9277;BME280;4676;42.678;23.244;2023-05-23T07:55:49;93956.50;;;18.34;100.00
9277;BME280;4676;42.678;23.244;2023-05-23T07:58:16;93950.50;;;18.46;100.00
9277;BME280;4676;42.678;23.244;2023-05-23T08:00:44;93958.88;;;18.72;100.00
9277;BME280;4676;42.678;23.244;2023-05-23T08:03:12;93955.50;;;18.82;100.00
9277;BME280;4676;42.678;23.244;2023-05-23T08:05:38;93954.72;;;18.93;100.00
9277;BME280;4676;42.678;23.244;2023-05-23T08:08:05;93951.22;;;18.94;100.00
9277;BME280;4676;42.678;23.244;2023-05-23T08:10:32;93949.59;;;19.15;100.00
9277;BME280;4676;42.678;23.244;2023-05-23T08:12:58;93957.09;;;19.40;100.00
9277;BME280;4676;42.678;23.244;2023-05-23T08:15:30;93949.03;;;19.34;100.00
9277;BME280;4676;42.678;23.244;2023-05-23T08:17:57;93950.00;;;19.55;100.00
9277;BME280;4676;42.678;23.244;2023-05-23T08:20:26;93950.44;;;19.16;100.00
9277;BME280;4676;42.678;23.244;2023-05-23T08:22:57;93947.53;;;19.20;100.00
9277;BME280;4676;42.678;23.244;2023-05-23T08:25:24;93959.31;;;19.23;100.00
9277;BME280;4676;42.678;23.244;2023-05-23T08:27:54;93958.13;;;19.05;100.00
9277;BME280;4676;42.678;23.244;2023-05-23T08:30:21;93951.59;;;19.12;100.00
9277;BME280;4676;42.678;23.244;2023-05-23T08:32:50;93948.78;;;19.04;100.00
9277;BME280;4676;42.678;23.244;2023-05-23T08:35:16;93945.41;;;19.03;100.00
9277;BME280;4676;42.678;23.244;2023-05-23T08:37:44;93942.59;;;18.95;100.00
9277;BME280;4676;42.678;23.244;2023-05-23T08:40:14;93941.44;;;19.21;100.00
9277;BME280;4676;42.678;23.244;2023-05-23T08:42:43;93942.78;;;19.49;100.00
9277;BME280;4676;42.678;23.244;2023-05-23T08:45:10;93935.09;;;19.81;100.00
9277;BME280;4676;42.678;23.244;2023-05-23T08:47:38;93936.03;;;19.91;100.00
9277;BME280;4676;42.678;23.244;2023-05-23T08:50:10;93936.94;;;20.01;100.00
9277;BME280;4676;42.678;23.244;2023-05-23T08:52:42;93924.28;;;20.09;100.00
9277;BME280;4676;42.678;23.244;2023-05-23T08:55:10;93931.13;;;20.31;100.00
9277;BME280;4676;42.678;23.244;2023-05-23T08:57:38;93925.25;;;20.40;87.20
9277;BME280;4676;42.678;23.244;2023-05-23T09:00:08;93940.09;;;20.68;95.46
9277;BME280;4676;42.678;23.244;2023-05-23T09:02:39;93943.72;;;20.66;81.13
9277;BME280;4676;42.678;23.244;2023-05-23T09:05:06;93939.28;;;20.47;78.47
9277;BME280;4676;42.678;23.244;2023-05-23T09:07:33;93935.94;;;20.56;85.65
9277;BME280;4676;42.678;23.244;2023-05-23T09:10:01;93930.94;;;20.55;84.98
9277;BME280;4676;42.678;23.244;2023-05-23T09:12:30;93940.09;;;20.48;80.49
9277;BME280;4676;42.678;23.244;2023-05-23T09:14:57;93934.56;;;20.52;74.85
9277;BME280;4676;42.678;23.244;2023-05-23T09:17:24;93936.25;;;20.63;77.12
9277;BME280;4676;42.678;23.244;2023-05-23T09:19:51;93936.47;;;20.71;70.84
9277;BME280;4676;42.678;23.244;2023-05-23T09:22:22;93923.38;;;20.83;74.54
9277;BME280;4676;42.678;23.244;2023-05-23T09:24:49;93924.38;;;20.92;70.50
9277;BME280;4676;42.678;23.244;2023-05-23T09:27:16;93931.22;;;20.40;68.75
9277;BME280;4676;42.678;23.244;2023-05-23T09:29:44;93924.00;;;20.55;76.63
9277;BME280;4676;42.678;23.244;2023-05-23T09:32:13;93917.53;;;20.81;76.28
9277;BME280;4676;42.678;23.244;2023-05-23T09:34:40;93920.22;;;21.01;71.17
9277;BME280;4676;42.678;23.244;2023-05-23T09:37:10;93916.78;;;20.90;65.67
9277;BME280;4676;42.678;23.244;2023-05-23T09:39:37;93910.38;;;20.85;64.92
9277;BME280;4676;42.678;23.244;2023-05-23T09:42:05;93927.47;;;20.86;63.23
9277;BME280;4676;42.678;23.244;2023-05-23T09:44:31;93910.44;;;20.94;70.19
9277;BME280;4676;42.678;23.244;2023-05-23T09:47:07;93920.16;;;21.12;69.21
9277;BME280;4676;42.678;23.244;2023-05-23T09:49:34;93909.22;;;21.19;70.33
9277;BME280;4676;42.678;23.244;2023-05-23T09:52:04;93916.03;;;21.20;68.95
9277;BME280;4676;42.678;23.244;2023-05-23T09:54:31;93916.84;;;21.21;59.28
9277;BME280;4676;42.678;23.244;2023-05-23T09:56:58;93913.84;;;21.25;61.91
9277;BME280;4676;42.678;23.244;2023-05-23T09:59:28;93912.06;;;20.96;61.39
9277;BME280;4676;42.678;23.244;2023-05-23T10:01:56;93900.75;;;20.87;61.42
9277;BME280;4676;42.678;23.244;2023-05-23T10:04:30;93907.09;;;21.04;66.09
9277;BME280;4676;42.678;23.244;2023-05-23T10:07:01;93904.00;;;21.10;66.46
9277;BME280;4676;42.678;23.244;2023-05-23T10:09:32;93893.22;;;21.25;66.59
9277;BME280;4676;42.678;23.244;2023-05-23T10:15:13;93902.59;;;21.57;61.51
9277;BME280;4676;42.678;23.244;2023-05-23T10:18:00;93906.13;;;21.65;57.58
9277;BME280;4676;42.678;23.244;2023-05-23T10:20:30;93913.75;;;21.67;55.25
9277;BME280;4676;42.678;23.244;2023-05-23T10:22:59;93905.03;;;21.68;58.51
9277;BME280;4676;42.678;23.244;2023-05-23T10:25:27;93887.69;;;21.70;57.66
9277;BME280;4676;42.678;23.244;2023-05-23T10:30:26;93905.09;;;21.87;57.38
9277;BME280;4676;42.678;23.244;2023-05-23T10:32:53;93901.34;;;22.01;54.93
9277;BME280;4676;42.678;23.244;2023-05-23T10:35:27;93897.94;;;22.00;54.62
9277;BME280;4676;42.678;23.244;2023-05-23T10:38:01;93896.19;;;22.10;50.83
9277;BME280;4676;42.678;23.244;2023-05-23T10:40:35;93897.28;;;21.98;51.19
9277;BME280;4676;42.678;23.244;2023-05-23T10:43:09;93901.19;;;21.92;49.94
9277;BME280;4676;42.678;23.244;2023-05-23T10:45:39;93891.09;;;21.89;48.44
9277;BME280;4676;42.678;23.244;2023-05-23T10:48:19;93896.72;;;21.95;49.37
9277;BME280;4676;42.678;23.244;2023-05-23T10:51:00;93885.47;;;22.05;52.25
9277;BME280;4676;42.678;23.244;2023-05-23T10:53:31;93880.56;;;22.12;51.79
9277;BME280;4676;42.678;23.244;2023-05-23T10:55:58;93876.78;;;22.25;56.39
9277;BME280;4676;42.678;23.244;2023-05-23T10:58:28;93877.31;;;22.48;55.47
9277;BME280;4676;42.678;23.244;2023-05-23T11:00:59;93872.00;;;22.50;55.55
9277;BME280;4676;42.678;23.244;2023-05-23T11:03:30;93881.22;;;22.52;50.30
9277;BME280;4676;42.678;23.244;2023-05-23T11:05:58;93881.91;;;22.54;52.10
9277;BME280;4676;42.678;23.244;2023-05-23T11:08:25;93877.19;;;22.40;47.81
9277;BME280;4676;42.678;23.244;2023-05-23T11:10:58;93876.47;;;22.38;51.24
9277;BME280;4676;42.678;23.244;2023-05-23T11:13:25;93875.28;;;22.32;49.09
9277;BME280;4676;42.678;23.244;2023-05-23T11:16:28;93870.13;;;22.23;47.11
9277;BME280;4676;42.678;23.244;2023-05-23T11:19:20;93860.03;;;22.39;50.65
9277;BME280;4676;42.678;23.244;2023-05-23T11:21:51;93858.69;;;22.35;48.84
9277;BME280;4676;42.678;23.244;2023-05-23T11:24:19;93853.78;;;22.41;49.49
9277;BME280;4676;42.678;23.244;2023-05-23T11:26:54;93856.38;;;22.51;50.45
9277;BME280;4676;42.678;23.244;2023-05-23T11:29:25;93858.66;;;22.73;50.67
9277;BME280;4676;42.678;23.244;2023-05-23T11:31:53;93859.44;;;22.83;49.85
9277;BME280;4676;42.678;23.244;2023-05-23T11:34:20;93844.22;;;22.90;51.36
9277;BME280;4676;42.678;23.244;2023-05-23T11:36:51;93850.97;;;23.01;48.94
9277;BME280;4676;42.678;23.244;2023-05-23T11:39:18;93854.75;;;23.06;48.70
9277;BME280;4676;42.678;23.244;2023-05-23T11:41:58;93855.16;;;23.02;48.41
9277;BME280;4676;42.678;23.244;2023-05-23T11:44:25;93842.00;;;22.95;45.47
9277;BME280;4676;42.678;23.244;2023-05-23T11:46:59;93847.59;;;22.90;46.44
9277;BME280;4676;42.678;23.244;2023-05-23T11:49:27;93851.16;;;22.80;45.10
9277;BME280;4676;42.678;23.244;2023-05-23T11:51:54;93845.28;;;22.87;45.77
9277;BME280;4676;42.678;23.244;2023-05-23T11:54:22;93849.22;;;22.92;48.92
9277;BME280;4676;42.678;23.244;2023-05-23T11:56:49;93848.66;;;22.98;47.45
9277;BME280;4676;42.678;23.244;2023-05-23T11:59:17;93839.59;;;22.84;46.03
9277;BME280;4676;42.678;23.244;2023-05-23T12:01:44;93838.72;;;23.03;48.32
9277;BME280;4676;42.678;23.244;2023-05-23T12:04:10;93833.38;;;23.14;47.63
9277;BME280;4676;42.678;23.244;2023-05-23T12:06:38;93836.00;;;23.31;47.73
9277;BME280;4676;42.678;23.244;2023-05-23T12:09:06;93834.72;;;23.18;48.22
9277;BME280;4676;42.678;23.244;2023-05-23T12:11:33;93828.31;;;23.22;47.38
9277;BME280;4676;42.678;23.244;2023-05-23T12:14:00;93829.78;;;23.24;47.60
9277;BME280;4676;42.678;23.244;2023-05-23T12:16:32;93821.22;;;23.24;45.80
9277;BME280;4676;42.678;23.244;2023-05-23T12:18:59;93814.72;;;23.37;46.96
9277;BME280;4676;42.678;23.244;2023-05-23T12:21:40;93813.53;;;23.42;46.40
9277;BME280;4676;42.678;23.244;2023-05-23T12:24:17;93814.03;;;23.45;46.09
9277;BME280;4676;42.678;23.244;2023-05-23T12:26:48;93814.44;;;23.40;46.04
9277;BME280;4676;42.678;23.244;2023-05-23T12:29:17;93812.72;;;23.31;45.78
9277;BME280;4676;42.678;23.244;2023-05-23T12:31:47;93808.66;;;23.29;46.08
9277;BME280;4676;42.678;23.244;2023-05-23T12:34:14;93806.00;;;23.48;47.20
9277;BME280;4676;42.678;23.244;2023-05-23T12:36:41;93802.88;;;23.45;46.29
9277;BME280;4676;42.678;23.244;2023-05-23T12:39:10;93803.94;;;23.52;44.91
9277;BME280;4676;42.678;23.244;2023-05-23T12:41:40;93791.09;;;23.32;44.47
9277;BME280;4676;42.678;23.244;2023-05-23T12:44:07;93797.13;;;23.23;43.33
9277;BME280;4676;42.678;23.244;2023-05-23T12:46:34;93801.50;;;23.40;43.47
9277;BME280;4676;42.678;23.244;2023-05-23T12:49:02;93783.59;;;23.29;43.51
9277;BME280;4676;42.678;23.244;2023-05-23T12:51:29;93793.59;;;23.52;46.17
9277;BME280;4676;42.678;23.244;2023-05-23T12:53:56;93786.00;;;23.68;46.69
9277;BME280;4676;42.678;23.244;2023-05-23T12:56:22;93780.00;;;23.85;46.87
9277;BME280;4676;42.678;23.244;2023-05-23T12:58:50;93790.13;;;24.14;46.00
9277;BME280;4676;42.678;23.244;2023-05-23T13:01:18;93787.53;;;24.14;44.09
9277;BME280;4676;42.678;23.244;2023-05-23T13:03:45;93784.72;;;24.25;43.96
9277;BME280;4676;42.678;23.244;2023-05-23T13:06:13;93789.03;;;23.99;43.92
9277;BME280;4676;42.678;23.244;2023-05-23T13:08:40;93779.41;;;23.56;42.31
9277;BME280;4676;42.678;23.244;2023-05-23T13:11:07;93742.94;;;23.49;44.22
9277;BME280;4676;42.678;23.244;2023-05-23T13:13:34;93780.28;;;23.82;43.84
9277;BME280;4676;42.678;23.244;2023-05-23T13:16:01;93777.63;;;23.92;42.13
9277;BME280;4676;42.678;23.244;2023-05-23T13:18:27;93779.19;;;24.20;44.43